createdAt,value
2023-02-08T00:01:40.351Z,99.71
2023-02-08T00:04:09.115Z,99.88
2023-02-08T00:06:37.477Z,99.96
2023-02-08T00:09:07.435Z,99.88
2023-02-08T00:11:36.191Z,99.95
2023-02-08T00:14:04.555Z,99.98
2023-02-08T00:16:33.563Z,99.99
2023-02-08T00:19:01.883Z,100.00
2023-02-08T00:21:30.348Z,100.00
2023-02-08T00:23:58.683Z,100.00
2023-02-08T00:26:27.029Z,100.00
2023-02-08T00:28:55.491Z,100.00
2023-02-08T00:31:23.969Z,100.00
2023-02-08T00:33:52.305Z,100.00
2023-02-08T00:36:21.060Z,100.00
2023-02-08T00:38:49.394Z,100.00
2023-02-08T00:41:17.783Z,100.00
2023-02-08T00:43:49.514Z,100.00
2023-02-08T00:46:17.961Z,100.00
2023-02-08T00:48:46.385Z,100.00
2023-02-08T00:51:15.547Z,100.00
2023-02-08T00:53:45.980Z,100.00
2023-02-08T00:56:16.045Z,100.00
2023-02-08T00:58:44.558Z,100.00
2023-02-08T01:01:13.904Z,100.00
2023-02-08T01:03:45.694Z,100.00
2023-02-08T01:06:18.201Z,100.00
2023-02-08T01:08:47.004Z,100.00
2023-02-08T01:11:21.981Z,100.00
2023-02-08T01:13:51.239Z,100.00
2023-02-08T01:16:23.004Z,100.00
2023-02-08T01:18:53.415Z,100.00
2023-02-08T01:21:25.028Z,100.00
2023-02-08T01:23:54.103Z,100.00
2023-02-08T01:26:23.853Z,100.00
2023-02-08T01:28:54.147Z,100.00
2023-02-08T01:31:26.407Z,100.00
2023-02-08T01:33:56.596Z,100.00
2023-02-08T01:36:26.566Z,100.00
2023-02-08T01:38:55.537Z,100.00
2023-02-08T01:41:43.889Z,100.00
2023-02-08T01:44:12.171Z,100.00
2023-02-08T01:46:41.931Z,100.00
2023-02-08T01:49:29.106Z,100.00
2023-02-08T01:52:00.551Z,100.00
2023-02-08T01:54:37.321Z,100.00
2023-02-08T01:57:07.033Z,100.00
2023-02-08T01:59:54.977Z,100.00
2023-02-08T02:02:25.510Z,100.00
2023-02-08T02:04:55.898Z,100.00
2023-02-08T02:07:28.745Z,100.00
2023-02-08T02:10:06.008Z,100.00
2023-02-08T02:12:37.809Z,100.00
2023-02-08T02:15:07.728Z,100.00
2023-02-08T02:17:38.260Z,100.00
2023-02-08T02:20:24.336Z,100.00
2023-02-08T02:23:11.506Z,100.00
2023-02-08T02:25:51.925Z,100.00
2023-02-08T02:28:35.378Z,100.00
2023-02-08T02:31:39.691Z,100.00
2023-02-08T02:34:08.012Z,100.00
2023-02-08T02:36:49.219Z,100.00
2023-02-08T02:39:34.333Z,100.00
2023-02-08T02:43:07.479Z,100.00
2023-02-08T02:46:17.423Z,100.00
2023-02-08T02:48:53.193Z,100.00
2023-02-08T02:51:30.511Z,100.00
2023-02-08T02:54:21.131Z,100.00
2023-02-08T02:56:56.039Z,100.00
2023-02-08T02:59:26.499Z,100.00
2023-02-08T03:01:56.686Z,100.00
2023-02-08T03:04:34.562Z,100.00
2023-02-08T03:07:17.937Z,100.00
2023-02-08T03:10:08.028Z,100.00
2023-02-08T03:12:44.343Z,100.00
2023-02-08T03:15:29.160Z,100.00
2023-02-08T03:18:14.928Z,100.00
2023-02-08T03:21:00.848Z,100.00
2023-02-08T03:23:37.246Z,100.00
2023-02-08T03:26:28.752Z,100.00
2023-02-08T03:29:18.648Z,100.00
2023-02-08T03:32:17.272Z,100.00
2023-02-08T03:34:57.348Z,100.00
2023-02-08T03:37:51.973Z,100.00
2023-02-08T03:40:25.817Z,100.00
2023-02-08T03:42:58.690Z,100.00
2023-02-08T03:45:33.507Z,100.00
2023-02-08T03:48:06.956Z,100.00
2023-02-08T03:50:40.042Z,100.00
2023-02-08T03:53:10.753Z,100.00
2023-02-08T03:55:41.162Z,100.00
2023-02-08T03:58:46.923Z,100.00
2023-02-08T04:01:27.301Z,100.00
2023-02-08T04:03:57.501Z,100.00
2023-02-08T04:06:26.095Z,100.00
2023-02-08T04:08:54.340Z,100.00
2023-02-08T04:11:22.683Z,100.00
2023-02-08T04:13:51.032Z,100.00
2023-02-08T04:16:19.332Z,100.00
2023-02-08T04:18:47.638Z,100.00
2023-02-08T04:21:17.177Z,100.00
2023-02-08T04:23:45.484Z,100.00
2023-02-08T04:26:13.803Z,100.00
2023-02-08T04:28:42.277Z,100.00
2023-02-08T04:31:10.803Z,100.00
2023-02-08T04:33:39.193Z,100.00
2023-02-08T04:36:07.869Z,100.00
2023-02-08T04:38:36.227Z,100.00
2023-02-08T04:41:04.707Z,100.00
2023-02-08T04:43:33.093Z,100.00
2023-02-08T04:46:01.506Z,100.00
2023-02-08T04:48:30.150Z,100.00
2023-02-08T04:50:58.966Z,100.00
2023-02-08T04:53:27.488Z,100.00
2023-02-08T04:55:55.871Z,100.00
2023-02-08T04:58:24.372Z,100.00
2023-02-08T05:00:52.852Z,100.00
2023-02-08T05:03:21.258Z,100.00
2023-02-08T05:06:00.445Z,100.00
2023-02-08T05:08:29.297Z,100.00
2023-02-08T05:10:57.888Z,100.00
2023-02-08T05:13:26.181Z,100.00
2023-02-08T05:15:54.631Z,100.00
2023-02-08T05:18:23.223Z,100.00
2023-02-08T05:20:59.996Z,100.00
2023-02-08T05:23:28.666Z,100.00
2023-02-08T05:25:57.336Z,100.00
2023-02-08T05:28:26.130Z,100.00
2023-02-08T05:30:54.729Z,100.00
2023-02-08T05:33:23.666Z,100.00
2023-02-08T05:35:51.978Z,100.00
2023-02-08T05:38:20.379Z,100.00
2023-02-08T05:40:48.618Z,100.00
2023-02-08T05:43:17.649Z,100.00
2023-02-08T05:45:45.943Z,100.00
2023-02-08T05:48:14.401Z,100.00
2023-02-08T05:50:43.215Z,100.00
2023-02-08T05:53:11.700Z,100.00
2023-02-08T05:55:39.974Z,100.00
2023-02-08T05:58:08.340Z,100.00
2023-02-08T06:00:36.818Z,100.00
2023-02-08T06:03:05.191Z,100.00
2023-02-08T06:05:34.106Z,100.00
2023-02-08T06:08:02.609Z,100.00
2023-02-08T06:10:31.079Z,100.00
2023-02-08T06:12:59.736Z,100.00
2023-02-08T06:15:28.470Z,100.00
2023-02-08T06:17:57.304Z,100.00
2023-02-08T06:20:25.862Z,100.00
2023-02-08T06:22:56.546Z,100.00
2023-02-08T06:25:24.873Z,100.00
2023-02-08T06:27:54.307Z,100.00
2023-02-08T06:30:24.091Z,100.00
2023-02-08T06:32:52.828Z,100.00
2023-02-08T06:35:21.280Z,100.00
2023-02-08T06:37:49.900Z,100.00
2023-02-08T06:40:18.412Z,100.00
2023-02-08T06:42:48.079Z,100.00
2023-02-08T06:45:17.565Z,100.00
2023-02-08T06:47:45.899Z,100.00
2023-02-08T06:50:15.475Z,100.00
2023-02-08T06:52:44.758Z,100.00
2023-02-08T06:55:14.154Z,100.00
2023-02-08T06:57:42.567Z,100.00
2023-02-08T07:00:15.488Z,100.00
2023-02-08T07:02:43.957Z,100.00
2023-02-08T07:05:12.806Z,100.00
2023-02-08T07:07:42.571Z,100.00
2023-02-08T07:10:10.982Z,100.00
2023-02-08T07:12:39.514Z,100.00
2023-02-08T07:15:13.333Z,100.00
2023-02-08T07:17:41.719Z,100.00
2023-02-08T07:20:11.705Z,100.00
2023-02-08T07:22:40.588Z,100.00
2023-02-08T07:25:09.671Z,100.00
2023-02-08T07:27:38.284Z,100.00
2023-02-08T07:30:08.283Z,100.00
2023-02-08T07:32:36.695Z,100.00
2023-02-08T07:35:05.310Z,100.00
2023-02-08T07:37:33.954Z,100.00
2023-02-08T07:40:02.417Z,100.00
2023-02-08T07:42:30.751Z,100.00
2023-02-08T07:45:16.244Z,100.00
2023-02-08T07:47:46.856Z,100.00
2023-02-08T07:50:16.660Z,100.00
2023-02-08T07:52:46.499Z,100.00
2023-02-08T07:55:18.864Z,100.00
2023-02-08T07:57:49.342Z,100.00
2023-02-08T08:00:19.113Z,100.00
2023-02-08T08:02:50.667Z,100.00
2023-02-08T08:05:19.286Z,100.00
2023-02-08T08:07:48.145Z,100.00
2023-02-08T08:10:16.538Z,100.00
2023-02-08T08:12:44.835Z,100.00
2023-02-08T08:15:13.295Z,100.00
2023-02-08T08:17:42.430Z,100.00
2023-02-08T08:20:11.826Z,99.97
2023-02-08T08:22:40.216Z,99.59
2023-02-08T08:25:08.756Z,99.24
2023-02-08T08:27:37.768Z,99.60
2023-02-08T08:30:08.463Z,99.76
2023-02-08T08:32:38.539Z,99.27
2023-02-08T08:35:08.496Z,99.12
2023-02-08T08:37:37.590Z,98.72
2023-02-08T08:40:07.894Z,98.29
2023-02-08T08:42:37.013Z,97.15
2023-02-08T08:45:06.486Z,96.45
2023-02-08T08:47:35.163Z,95.78
2023-02-08T08:50:03.908Z,95.67
2023-02-08T08:52:32.305Z,94.92
2023-02-08T08:55:00.646Z,94.64
2023-02-08T08:57:29.151Z,94.20
2023-02-08T08:59:57.621Z,94.58
2023-02-08T09:02:30.625Z,94.38
2023-02-08T09:05:00.899Z,94.63
2023-02-08T09:07:29.419Z,94.96
2023-02-08T09:09:57.845Z,95.51
2023-02-08T09:12:31.339Z,95.36
2023-02-08T09:14:59.715Z,95.18
2023-02-08T09:17:28.619Z,94.30
2023-02-08T09:19:57.195Z,89.92
2023-02-08T09:22:25.567Z,88.88
2023-02-08T09:24:54.213Z,89.07
2023-02-08T09:27:22.739Z,88.97
2023-02-08T09:29:51.150Z,88.66
2023-02-08T09:32:21.304Z,86.80
2023-02-08T09:34:49.867Z,85.69
2023-02-08T09:37:21.048Z,84.89
2023-02-08T09:39:49.578Z,85.76
2023-02-08T09:42:42.386Z,86.86
2023-02-08T09:45:22.846Z,87.77
2023-02-08T09:48:10.984Z,88.00
2023-02-08T09:50:48.830Z,88.22
2023-02-08T09:53:30.741Z,87.92
2023-02-08T09:56:02.072Z,87.40
2023-02-08T09:58:54.068Z,86.86
2023-02-08T10:01:30.060Z,86.50
2023-02-08T10:04:28.925Z,85.61
2023-02-08T10:06:57.465Z,84.38
2023-02-08T10:09:27.454Z,84.56
2023-02-08T10:12:19.852Z,84.30
2023-02-08T10:15:07.010Z,82.81
2023-02-08T10:18:06.515Z,82.27
2023-02-08T10:20:37.664Z,82.72
2023-02-08T10:23:17.248Z,81.80
2023-02-08T10:26:11.063Z,80.02
2023-02-08T10:28:42.491Z,80.36
2023-02-08T10:31:20.346Z,80.73
2023-02-08T10:33:55.219Z,79.91
2023-02-08T10:36:26.981Z,76.66
2023-02-08T10:38:56.966Z,72.51
2023-02-08T10:41:32.243Z,73.15
2023-02-08T10:44:14.538Z,71.30
2023-02-08T10:47:20.685Z,70.52
2023-02-08T10:50:35.891Z,71.24
2023-02-08T10:53:07.898Z,72.10
2023-02-08T10:55:48.092Z,72.69
2023-02-08T10:58:20.203Z,73.84
2023-02-08T11:00:52.098Z,74.29
2023-02-08T11:03:27.269Z,74.33
2023-02-08T11:05:58.797Z,74.88
2023-02-08T11:08:29.034Z,74.69
2023-02-08T11:11:07.793Z,74.31
2023-02-08T11:13:39.786Z,74.87
2023-02-08T11:16:12.692Z,75.02
2023-02-08T11:18:49.188Z,75.48
2023-02-08T11:21:29.461Z,75.26
2023-02-08T11:23:58.530Z,75.29
2023-02-08T11:26:40.074Z,75.18
2023-02-08T11:29:17.608Z,74.82
2023-02-08T11:31:55.216Z,74.12
2023-02-08T11:34:28.459Z,74.20
2023-02-08T11:36:59.492Z,74.10
2023-02-08T11:39:54.459Z,74.46
2023-02-08T11:42:29.854Z,74.84
2023-02-08T11:44:59.963Z,74.24
2023-02-08T11:47:34.449Z,74.14
2023-02-08T11:50:06.775Z,74.37
2023-02-08T11:52:43.420Z,74.65
2023-02-08T11:55:17.715Z,74.33
2023-02-08T11:58:19.227Z,69.63
2023-02-08T12:01:21.697Z,70.80
2023-02-08T12:03:51.103Z,69.64
2023-02-08T12:06:28.729Z,67.11
2023-02-08T12:09:12.700Z,65.42
2023-02-08T12:11:47.462Z,64.81
2023-02-08T12:14:27.747Z,63.99
2023-02-08T12:17:23.303Z,63.47
2023-02-08T12:20:23.305Z,63.18
2023-02-08T12:23:03.504Z,62.13
2023-02-08T12:25:31.908Z,61.98
2023-02-08T12:28:42.528Z,61.63
2023-02-08T12:31:38.844Z,61.54
2023-02-08T12:34:36.775Z,60.14
2023-02-08T12:37:53.584Z,58.59
2023-02-08T12:40:51.112Z,60.09
2023-02-08T12:43:52.033Z,59.60
2023-02-08T12:46:23.481Z,60.46
2023-02-08T12:49:04.197Z,60.24
2023-02-08T12:51:57.140Z,60.27
2023-02-08T12:54:54.230Z,59.03
2023-02-08T12:57:27.251Z,59.13
2023-02-08T13:00:36.927Z,58.41
2023-02-08T13:03:11.467Z,58.40
2023-02-08T13:05:53.472Z,58.42
2023-02-08T13:08:50.556Z,58.47
2023-02-08T13:12:04.589Z,59.34
2023-02-08T13:14:57.492Z,59.17
2023-02-08T13:17:55.203Z,58.99
2023-02-08T13:20:43.914Z,59.30
2023-02-08T13:23:52.096Z,58.98
2023-02-08T13:26:33.308Z,58.34
2023-02-08T13:29:03.040Z,59.04
2023-02-08T13:31:54.043Z,58.83
2023-02-08T13:34:31.536Z,59.01
2023-02-08T13:37:08.840Z,58.74
2023-02-08T13:39:46.355Z,57.93
2023-02-08T13:42:20.799Z,58.26
2023-02-08T13:44:55.701Z,58.82
2023-02-08T13:47:26.883Z,60.33
2023-02-08T13:50:01.966Z,60.83
2023-02-08T13:52:46.498Z,61.22
2023-02-08T13:55:36.212Z,61.33
2023-02-08T13:58:06.075Z,61.21
2023-02-08T14:00:36.888Z,61.24
2023-02-08T14:03:08.638Z,61.72
2023-02-08T14:05:49.086Z,62.36
2023-02-08T14:09:06.516Z,62.90
2023-02-08T14:11:49.794Z,63.87
2023-02-08T14:14:26.505Z,64.46
2023-02-08T14:17:19.794Z,64.98
2023-02-08T14:19:59.123Z,65.55
2023-02-08T14:22:34.966Z,66.28
2023-02-08T14:25:18.030Z,66.48
2023-02-08T14:27:56.756Z,66.69
2023-02-08T14:30:31.397Z,67.10
2023-02-08T14:33:09.401Z,67.64
2023-02-08T14:35:42.791Z,67.51
2023-02-08T14:38:20.764Z,68.05
2023-02-08T14:40:58.062Z,68.06
2023-02-08T14:43:43.190Z,68.25
2023-02-08T14:46:40.354Z,68.28
2023-02-08T14:49:19.414Z,68.69
2023-02-08T14:52:07.686Z,69.25
2023-02-08T14:54:46.310Z,68.98
2023-02-08T14:57:28.139Z,69.08
2023-02-08T15:00:00.784Z,69.44
2023-02-08T15:02:31.592Z,69.68
2023-02-08T15:05:02.458Z,69.87
2023-02-08T15:07:54.377Z,70.10
2023-02-08T15:10:25.011Z,70.07
2023-02-08T15:13:06.720Z,70.35
2023-02-08T15:15:44.152Z,70.31
2023-02-08T15:18:20.551Z,70.44
2023-02-08T15:21:05.032Z,70.50
2023-02-08T15:23:33.645Z,70.82
2023-02-08T15:26:05.071Z,71.02
2023-02-08T15:28:37.045Z,71.53
2023-02-08T15:31:12.036Z,71.66
2023-02-08T15:33:43.613Z,71.88
2023-02-08T15:36:17.149Z,71.85
2023-02-08T15:38:45.968Z,72.07
2023-02-08T15:41:23.952Z,72.26
2023-02-08T15:44:16.096Z,72.61
2023-02-08T15:46:46.535Z,73.09
2023-02-08T15:49:18.336Z,73.21
2023-02-08T15:51:48.049Z,73.05
2023-02-08T15:54:20.032Z,73.37
2023-02-08T15:57:19.173Z,73.52
2023-02-08T15:59:48.881Z,73.74
2023-02-08T16:02:22.327Z,73.97
2023-02-08T16:04:51.411Z,74.29
2023-02-08T16:07:34.982Z,74.56
2023-02-08T16:10:06.311Z,74.81
2023-02-08T16:12:36.270Z,74.98
2023-02-08T16:15:04.989Z,75.28
2023-02-08T16:17:44.388Z,75.53
2023-02-08T16:20:35.964Z,75.75
2023-02-08T16:26:43.474Z,76.60
2023-02-08T16:29:24.100Z,76.98
2023-02-08T16:32:03.791Z,77.22
2023-02-08T16:34:36.219Z,77.37
2023-02-08T16:37:20.841Z,77.67
2023-02-08T16:39:54.043Z,77.80
2023-02-08T16:42:40.234Z,78.05
2023-02-08T16:45:09.874Z,78.39
2023-02-08T16:47:40.089Z,78.59
2023-02-08T16:50:14.763Z,78.97
2023-02-08T16:52:43.653Z,79.01
2023-02-08T16:55:21.360Z,79.24
2023-02-08T16:57:53.047Z,79.57
2023-02-08T17:00:23.425Z,79.94
2023-02-08T17:02:52.951Z,80.49
2023-02-08T17:05:27.217Z,80.69
2023-02-08T17:07:56.054Z,80.95
2023-02-08T17:10:36.925Z,81.00
2023-02-08T17:13:19.922Z,81.06
2023-02-08T17:15:54.756Z,81.03
2023-02-08T17:18:39.478Z,81.32
2023-02-08T17:21:10.322Z,81.58
2023-02-08T17:23:44.905Z,81.57
2023-02-08T17:26:27.584Z,81.66
2023-02-08T17:28:57.436Z,81.97
2023-02-08T17:31:29.338Z,82.24
2023-02-08T17:34:04.690Z,82.22
2023-02-08T17:36:34.891Z,82.47
2023-02-08T17:39:05.547Z,82.93
2023-02-08T17:41:39.286Z,83.21
2023-02-08T17:44:08.402Z,83.48
2023-02-08T17:46:42.394Z,83.45
2023-02-08T17:49:11.355Z,83.63
2023-02-08T17:51:40.299Z,83.48
2023-02-08T17:54:17.152Z,84.10
2023-02-08T17:56:45.631Z,85.13
2023-02-08T17:59:14.105Z,85.85
2023-02-08T18:01:46.308Z,86.37
2023-02-08T18:04:21.465Z,86.75
2023-02-08T18:06:59.591Z,87.01
2023-02-08T18:09:28.417Z,87.08
2023-02-08T18:11:56.702Z,87.01
2023-02-08T18:14:25.000Z,87.17
2023-02-08T18:16:53.433Z,87.08
2023-02-08T18:19:22.412Z,86.87
2023-02-08T18:21:54.417Z,86.80
2023-02-08T18:24:22.984Z,87.00
2023-02-08T18:26:51.363Z,86.95
2023-02-08T18:29:20.150Z,86.88
2023-02-08T18:31:50.386Z,86.86
2023-02-08T18:34:27.640Z,86.84
2023-02-08T18:36:57.050Z,86.66
2023-02-08T18:39:25.685Z,86.68
2023-02-08T18:41:54.941Z,86.60
2023-02-08T18:44:23.597Z,86.42
2023-02-08T18:46:53.325Z,86.12
2023-02-08T18:49:22.480Z,86.14
2023-02-08T18:51:51.538Z,86.36
2023-02-08T18:54:23.160Z,86.31
2023-02-08T18:56:56.164Z,86.34
2023-02-08T18:59:24.554Z,86.31
2023-02-08T19:01:55.258Z,86.18
2023-02-08T19:04:26.295Z,86.24
2023-02-08T19:06:56.354Z,86.23
2023-02-08T19:09:24.710Z,86.31
2023-02-08T19:11:53.108Z,86.59
2023-02-08T19:14:21.987Z,86.46
2023-02-08T19:16:50.440Z,86.37
2023-02-08T19:19:18.887Z,86.67
2023-02-08T19:21:47.352Z,86.84
2023-02-08T19:24:15.745Z,86.68
2023-02-08T19:26:44.143Z,86.66
2023-02-08T19:29:16.156Z,86.85
2023-02-08T19:31:46.041Z,86.99
2023-02-08T19:34:14.712Z,86.92
2023-02-08T19:36:46.620Z,86.78
2023-02-08T19:39:24.300Z,86.54
2023-02-08T19:41:54.281Z,86.56
2023-02-08T19:44:25.171Z,86.71
2023-02-08T19:46:55.395Z,86.77
2023-02-08T19:49:27.324Z,87.18
2023-02-08T19:52:00.926Z,87.32
2023-02-08T19:54:29.495Z,87.33
2023-02-08T19:56:57.964Z,87.56
2023-02-08T19:59:28.560Z,87.57
2023-02-08T20:01:57.132Z,87.66
2023-02-08T20:04:29.718Z,87.89
2023-02-08T20:06:59.280Z,87.90
2023-02-08T20:09:28.074Z,88.09
2023-02-08T20:11:58.075Z,87.80
2023-02-08T20:14:31.294Z,87.90
2023-02-08T20:17:02.657Z,88.29
2023-02-08T20:19:39.859Z,88.88
2023-02-08T20:22:08.301Z,89.92
2023-02-08T20:24:40.564Z,90.69
2023-02-08T20:27:15.085Z,91.28
2023-02-08T20:29:46.691Z,91.46
2023-02-08T20:32:15.295Z,91.49
2023-02-08T20:34:54.131Z,91.54
2023-02-08T20:37:27.680Z,91.57
2023-02-08T20:39:58.046Z,91.35
2023-02-08T20:42:28.860Z,91.09
2023-02-08T20:44:57.838Z,91.10
2023-02-08T20:47:27.455Z,90.93
2023-02-08T20:49:57.705Z,90.83
2023-02-08T20:52:27.169Z,90.74
2023-02-08T20:54:55.597Z,90.53
2023-02-08T20:57:25.316Z,90.24
2023-02-08T20:59:53.811Z,90.08
2023-02-08T21:02:23.712Z,90.08
2023-02-08T21:04:54.917Z,90.15
2023-02-08T21:07:23.556Z,90.12
2023-02-08T21:09:51.921Z,90.10
2023-02-08T21:12:20.371Z,89.95
2023-02-08T21:14:49.765Z,89.83
2023-02-08T21:17:18.361Z,89.85
2023-02-08T21:19:50.780Z,89.82
2023-02-08T21:22:21.922Z,90.17
2023-02-08T21:24:52.421Z,90.60
2023-02-08T21:27:20.952Z,90.85
2023-02-08T21:29:52.112Z,91.14
2023-02-08T21:32:20.524Z,91.38
2023-02-08T21:34:51.031Z,91.40
2023-02-08T21:37:19.391Z,91.27
2023-02-08T21:39:50.194Z,91.27
2023-02-08T21:42:18.685Z,91.08
2023-02-08T21:44:47.193Z,91.05
2023-02-08T21:47:15.547Z,91.12
2023-02-08T21:50:02.633Z,91.12
2023-02-08T21:52:50.096Z,91.20
2023-02-08T21:55:18.944Z,91.56
2023-02-08T21:57:47.196Z,91.87
2023-02-08T22:00:15.779Z,91.80
2023-02-08T22:02:44.329Z,91.74
2023-02-08T22:05:32.602Z,91.69
2023-02-08T22:08:01.220Z,91.36
2023-02-08T22:10:32.105Z,91.23
2023-02-08T22:13:00.998Z,91.22
2023-02-08T22:15:30.324Z,91.45
2023-02-08T22:18:01.594Z,91.66
2023-02-08T22:20:30.652Z,91.54
2023-02-08T22:22:59.001Z,91.19
2023-02-08T22:25:27.905Z,91.05
2023-02-08T22:27:56.419Z,91.26
2023-02-08T22:30:25.742Z,91.41
2023-02-08T22:32:57.352Z,91.48
2023-02-08T22:35:27.571Z,91.62
2023-02-08T22:37:56.153Z,91.81
2023-02-08T22:40:24.432Z,91.86
2023-02-08T22:42:53.951Z,91.65
2023-02-08T22:45:22.310Z,91.28
2023-02-08T22:47:50.603Z,91.19
2023-02-08T22:50:19.404Z,91.45
2023-02-08T22:52:47.773Z,91.68
2023-02-08T22:55:16.155Z,91.75
2023-02-08T22:57:44.566Z,91.90
2023-02-08T23:00:15.075Z,92.17
2023-02-08T23:02:44.253Z,92.49
2023-02-08T23:05:13.139Z,92.79
2023-02-08T23:07:41.424Z,93.09
2023-02-08T23:10:10.656Z,93.49
2023-02-08T23:12:39.668Z,93.24
2023-02-08T23:15:11.523Z,93.20
2023-02-08T23:17:39.916Z,93.46
2023-02-08T23:20:09.791Z,93.38
2023-02-08T23:22:38.222Z,93.67
2023-02-08T23:25:09.438Z,93.56
2023-02-08T23:27:38.993Z,92.96
2023-02-08T23:30:09.724Z,93.00
2023-02-08T23:32:40.248Z,93.09
2023-02-08T23:35:10.062Z,93.21
2023-02-08T23:37:38.511Z,92.70
2023-02-08T23:40:07.685Z,92.22
2023-02-08T23:42:37.063Z,91.89
2023-02-08T23:45:09.139Z,91.17
2023-02-08T23:47:39.398Z,91.24
2023-02-08T23:50:08.939Z,91.55
2023-02-08T23:52:37.716Z,92.09
2023-02-08T23:55:27.327Z,91.97
2023-02-08T23:58:08.365Z,91.60
